sensor_id;sensor_type;location;lat;lon;timestamp;pressure;altitude;pressure_sealevel;temperature;humidity
51759;BME280;66684;47.568;18.734;2023-05-01T00:00:55;99754.66;;;8.94;100.00
51759;BME280;66684;47.568;18.734;2023-05-01T00:03:22;99757.81;;;8.88;100.00
51759;BME280;66684;47.568;18.734;2023-05-01T00:05:48;99750.13;;;8.72;100.00
51759;BME280;66684;47.568;18.734;2023-05-01T00:08:13;99748.34;;;8.71;100.00
51759;BME280;66684;47.568;18.734;2023-05-01T00:10:40;99748.84;;;8.80;100.00
51759;BME280;66684;47.568;18.734;2023-05-01T00:13:06;99744.88;;;8.87;100.00
51759;BME280;66684;47.568;18.734;2023-05-01T00:15:32;99740.34;;;8.83;100.00
51759;BME280;66684;47.568;18.734;2023-05-01T00:17:58;99746.00;;;8.76;100.00
51759;BME280;66684;47.568;18.734;2023-05-01T00:20:27;99742.63;;;8.77;100.00
51759;BME280;66684;47.568;18.734;2023-05-01T00:22:54;99742.94;;;8.83;100.00
51759;BME280;66684;47.568;18.734;2023-05-01T00:25:20;99733.06;;;8.74;100.00
51759;BME280;66684;47.568;18.734;2023-05-01T00:27:46;99752.94;;;8.77;100.00
51759;BME280;66684;47.568;18.734;2023-05-01T00:30:13;99745.06;;;8.74;100.00
51759;BME280;66684;47.568;18.734;2023-05-01T00:32:40;99751.69;;;8.52;100.00
51759;BME280;66684;47.568;18.734;2023-05-01T00:35:06;99746.59;;;8.70;100.00
51759;BME280;66684;47.568;18.734;2023-05-01T00:37:32;99742.31;;;8.71;100.00
51759;BME280;66684;47.568;18.734;2023-05-01T00:39:58;99745.53;;;8.67;100.00
51759;BME280;66684;47.568;18.734;2023-05-01T00:42:24;99750.31;;;8.59;100.00
51759;BME280;66684;47.568;18.734;2023-05-01T00:44:49;99751.38;;;8.62;100.00
51759;BME280;66684;47.568;18.734;2023-05-01T00:47:15;99751.16;;;8.76;100.00
51759;BME280;66684;47.568;18.734;2023-05-01T00:49:42;99748.09;;;8.83;100.00
51759;BME280;66684;47.568;18.734;2023-05-01T00:52:09;99748.94;;;9.00;100.00
51759;BME280;66684;47.568;18.734;2023-05-01T00:54:38;99752.22;;;8.97;100.00
51759;BME280;66684;47.568;18.734;2023-05-01T00:57:05;99745.78;;;9.05;100.00
51759;BME280;66684;47.568;18.734;2023-05-01T00:59:33;99742.22;;;9.03;100.00
51759;BME280;66684;47.568;18.734;2023-05-01T01:01:59;99745.56;;;8.84;100.00
51759;BME280;66684;47.568;18.734;2023-05-01T01:04:25;99748.94;;;9.00;100.00
51759;BME280;66684;47.568;18.734;2023-05-01T01:12:16;99745.84;;;8.73;100.00
51759;BME280;66684;47.568;18.734;2023-05-01T01:15:43;99737.59;;;8.80;100.00
51759;BME280;66684;47.568;18.734;2023-05-01T01:18:27;99736.44;;;8.91;100.00
51759;BME280;66684;47.568;18.734;2023-05-01T01:35:17;99739.47;;;8.48;100.00
51759;BME280;66684;47.568;18.734;2023-05-01T01:40:24;99737.25;;;8.38;100.00
51759;BME280;66684;47.568;18.734;2023-05-01T01:43:02;99732.09;;;8.38;100.00
51759;BME280;66684;47.568;18.734;2023-05-01T01:45:38;99733.38;;;8.30;100.00
51759;BME280;66684;47.568;18.734;2023-05-01T01:48:08;99734.16;;;8.45;100.00
51759;BME280;66684;47.568;18.734;2023-05-01T01:50:37;99738.75;;;8.51;100.00
51759;BME280;66684;47.568;18.734;2023-05-01T01:53:05;99727.75;;;8.37;100.00
51759;BME280;66684;47.568;18.734;2023-05-01T01:55:34;99728.38;;;8.00;100.00
51759;BME280;66684;47.568;18.734;2023-05-01T01:58:02;99729.91;;;7.80;100.00
51759;BME280;66684;47.568;18.734;2023-05-01T02:00:28;99727.31;;;7.97;100.00
51759;BME280;66684;47.568;18.734;2023-05-01T02:02:57;99739.16;;;8.09;100.00
51759;BME280;66684;47.568;18.734;2023-05-01T02:05:24;99741.53;;;8.23;100.00
51759;BME280;66684;47.568;18.734;2023-05-01T02:07:52;99741.72;;;8.42;100.00
51759;BME280;66684;47.568;18.734;2023-05-01T02:10:20;99738.66;;;8.33;100.00
51759;BME280;66684;47.568;18.734;2023-05-01T02:12:50;99740.41;;;8.34;100.00
51759;BME280;66684;47.568;18.734;2023-05-01T02:15:17;99735.63;;;8.40;100.00
51759;BME280;66684;47.568;18.734;2023-05-01T02:17:44;99737.56;;;8.44;100.00
51759;BME280;66684;47.568;18.734;2023-05-01T02:20:10;99741.09;;;8.46;100.00
51759;BME280;66684;47.568;18.734;2023-05-01T02:22:40;99736.56;;;8.58;100.00
51759;BME280;66684;47.568;18.734;2023-05-01T02:25:11;99737.59;;;8.62;100.00
51759;BME280;66684;47.568;18.734;2023-05-01T02:27:39;99734.22;;;8.63;100.00
51759;BME280;66684;47.568;18.734;2023-05-01T02:30:08;99735.53;;;8.73;100.00
51759;BME280;66684;47.568;18.734;2023-05-01T02:32:34;99733.06;;;8.74;100.00
51759;BME280;66684;47.568;18.734;2023-05-01T02:35:00;99736.00;;;8.82;100.00
51759;BME280;66684;47.568;18.734;2023-05-01T02:37:26;99737.78;;;8.83;100.00
51759;BME280;66684;47.568;18.734;2023-05-01T02:39:53;99733.19;;;8.77;100.00
51759;BME280;66684;47.568;18.734;2023-05-01T02:42:21;99740.59;;;8.87;100.00
51759;BME280;66684;47.568;18.734;2023-05-01T02:44:56;99740.16;;;8.96;100.00
51759;BME280;66684;47.568;18.734;2023-05-01T02:47:26;99743.84;;;9.01;100.00
51759;BME280;66684;47.568;18.734;2023-05-01T02:49:53;99737.50;;;9.12;100.00
51759;BME280;66684;47.568;18.734;2023-05-01T02:52:20;99745.03;;;9.08;100.00
51759;BME280;66684;47.568;18.734;2023-05-01T02:54:48;99747.84;;;8.78;100.00
51759;BME280;66684;47.568;18.734;2023-05-01T02:57:17;99745.41;;;8.63;100.00
51759;BME280;66684;47.568;18.734;2023-05-01T02:59:43;99737.78;;;8.83;100.00
51759;BME280;66684;47.568;18.734;2023-05-01T03:02:09;99743.25;;;8.89;100.00
51759;BME280;66684;47.568;18.734;2023-05-01T03:04:36;99739.84;;;8.90;100.00
51759;BME280;66684;47.568;18.734;2023-05-01T03:07:02;99745.38;;;8.98;100.00
51759;BME280;66684;47.568;18.734;2023-05-01T03:09:29;99739.28;;;9.13;100.00
51759;BME280;66684;47.568;18.734;2023-05-01T03:11:56;99749.31;;;9.25;100.00
51759;BME280;66684;47.568;18.734;2023-05-01T03:14:22;99751.66;;;9.21;100.00
51759;BME280;66684;47.568;18.734;2023-05-01T03:16:48;99750.31;;;9.11;100.00
51759;BME280;66684;47.568;18.734;2023-05-01T03:19:14;99747.97;;;9.15;100.00
51759;BME280;66684;47.568;18.734;2023-05-01T03:21:40;99750.13;;;9.24;100.00
51759;BME280;66684;47.568;18.734;2023-05-01T03:24:06;99755.03;;;9.37;100.00
51759;BME280;66684;47.568;18.734;2023-05-01T03:26:32;99761.50;;;9.47;100.00
51759;BME280;66684;47.568;18.734;2023-05-01T03:28:58;99763.56;;;9.36;100.00
51759;BME280;66684;47.568;18.734;2023-05-01T03:31:24;99758.72;;;9.07;100.00
51759;BME280;66684;47.568;18.734;2023-05-01T03:33:50;99762.09;;;9.24;100.00
51759;BME280;66684;47.568;18.734;2023-05-01T03:36:16;99755.75;;;9.35;100.00
51759;BME280;66684;47.568;18.734;2023-05-01T03:38:42;99759.81;;;9.48;100.00
51759;BME280;66684;47.568;18.734;2023-05-01T03:41:08;99750.94;;;9.60;100.00
51759;BME280;66684;47.568;18.734;2023-05-01T03:43:34;99761.59;;;9.31;100.00
51759;BME280;66684;47.568;18.734;2023-05-01T03:46:00;99754.47;;;9.43;100.00
51759;BME280;66684;47.568;18.734;2023-05-01T03:48:26;99763.56;;;9.54;100.00
51759;BME280;66684;47.568;18.734;2023-05-01T03:50:52;99753.81;;;9.66;100.00
51759;BME280;66684;47.568;18.734;2023-05-01T03:53:18;99753.81;;;9.66;100.00
51759;BME280;66684;47.568;18.734;2023-05-01T03:55:44;99754.25;;;9.76;100.00
51759;BME280;66684;47.568;18.734;2023-05-01T03:58:10;99753.97;;;9.69;100.00
51759;BME280;66684;47.568;18.734;2023-05-01T04:00:36;99754.91;;;9.71;100.00
51759;BME280;66684;47.568;18.734;2023-05-01T04:03:03;99752.62;;;9.78;100.00
51759;BME280;66684;47.568;18.734;2023-05-01T04:05:29;99759.00;;;9.86;100.00
51759;BME280;66684;47.568;18.734;2023-05-01T04:07:55;99760.38;;;9.97;100.00
51759;BME280;66684;47.568;18.734;2023-05-01T04:10:22;99761.47;;;10.02;100.00
51759;BME280;66684;47.568;18.734;2023-05-01T04:12:48;99757.53;;;10.10;100.00
51759;BME280;66684;47.568;18.734;2023-05-01T04:15:14;99765.72;;;10.19;100.00
51759;BME280;66684;47.568;18.734;2023-05-01T04:17:40;99764.72;;;10.17;100.00
51759;BME280;66684;47.568;18.734;2023-05-01T04:20:08;99766.53;;;10.18;100.00
51759;BME280;66684;47.568;18.734;2023-05-01T04:22:35;99756.91;;;10.34;100.00
51759;BME280;66684;47.568;18.734;2023-05-01T04:25:02;99759.06;;;10.44;100.00
51759;BME280;66684;47.568;18.734;2023-05-01T04:27:29;99761.78;;;10.47;100.00
51759;BME280;66684;47.568;18.734;2023-05-01T04:29:55;99765.44;;;10.52;100.00
51759;BME280;66684;47.568;18.734;2023-05-01T04:32:21;99768.03;;;10.52;100.00
51759;BME280;66684;47.568;18.734;2023-05-01T04:34:48;99769.28;;;10.62;100.00
51759;BME280;66684;47.568;18.734;2023-05-01T04:37:14;99765.25;;;10.68;100.00
51759;BME280;66684;47.568;18.734;2023-05-01T04:39:42;99768.09;;;10.74;100.00
51759;BME280;66684;47.568;18.734;2023-05-01T04:42:09;99763.75;;;10.73;99.13
51759;BME280;66684;47.568;18.734;2023-05-01T04:44:35;99764.66;;;10.74;95.32
51759;BME280;66684;47.568;18.734;2023-05-01T04:47:02;99766.88;;;10.86;93.52
51759;BME280;66684;47.568;18.734;2023-05-01T04:49:28;99766.44;;;10.96;91.80
51759;BME280;66684;47.568;18.734;2023-05-01T04:51:54;99768.72;;;11.09;92.03
51759;BME280;66684;47.568;18.734;2023-05-01T04:54:21;99771.41;;;11.12;90.72
51759;BME280;66684;47.568;18.734;2023-05-01T04:56:47;99770.22;;;11.04;90.87
51759;BME280;66684;47.568;18.734;2023-05-01T04:59:13;99771.97;;;11.05;91.83
51759;BME280;66684;47.568;18.734;2023-05-01T05:01:39;99775.28;;;11.01;92.36
51759;BME280;66684;47.568;18.734;2023-05-01T05:04:05;99766.06;;;11.07;91.93
51759;BME280;66684;47.568;18.734;2023-05-01T05:06:32;99765.94;;;11.25;91.47
51759;BME280;66684;47.568;18.734;2023-05-01T05:08:58;99772.28;;;11.33;89.97
51759;BME280;66684;47.568;18.734;2023-05-01T05:11:24;99776.88;;;11.41;88.27
51759;BME280;66684;47.568;18.734;2023-05-01T05:13:50;99775.84;;;11.58;87.61
51759;BME280;66684;47.568;18.734;2023-05-01T05:16:16;99772.47;;;11.81;86.34
51759;BME280;66684;47.568;18.734;2023-05-01T05:18:42;99768.94;;;12.02;85.57
51759;BME280;66684;47.568;18.734;2023-05-01T05:21:08;99778.88;;;11.91;85.08
51759;BME280;66684;47.568;18.734;2023-05-01T05:23:35;99778.84;;;11.90;85.69
51759;BME280;66684;47.568;18.734;2023-05-01T05:26:01;99777.97;;;12.13;84.32
51759;BME280;66684;47.568;18.734;2023-05-01T05:28:27;99771.59;;;12.27;82.80
51759;BME280;66684;47.568;18.734;2023-05-01T05:30:54;99773.69;;;12.37;81.46
51759;BME280;66684;47.568;18.734;2023-05-01T05:33:20;99776.72;;;12.50;80.83
51759;BME280;66684;47.568;18.734;2023-05-01T05:35:47;99775.28;;;12.58;81.71
51759;BME280;66684;47.568;18.734;2023-05-01T05:38:13;99776.75;;;12.75;81.98
51759;BME280;66684;47.568;18.734;2023-05-01T05:40:40;99775.31;;;12.83;80.80
51759;BME280;66684;47.568;18.734;2023-05-01T05:43:06;99778.63;;;12.79;82.40
51759;BME280;66684;47.568;18.734;2023-05-01T05:45:33;99780.75;;;12.91;80.81
51759;BME280;66684;47.568;18.734;2023-05-01T05:47:59;99787.75;;;12.93;79.08
51759;BME280;66684;47.568;18.734;2023-05-01T05:50:25;99781.63;;;12.91;79.69
51759;BME280;66684;47.568;18.734;2023-05-01T05:52:51;99783.75;;;13.03;80.18
51759;BME280;66684;47.568;18.734;2023-05-01T05:55:17;99792.25;;;12.99;82.20
51759;BME280;66684;47.568;18.734;2023-05-01T05:57:42;99791.91;;;13.14;81.02
51759;BME280;66684;47.568;18.734;2023-05-01T06:00:09;99792.12;;;13.20;78.06
51759;BME280;66684;47.568;18.734;2023-05-01T06:02:35;99787.00;;;13.21;74.83
51759;BME280;66684;47.568;18.734;2023-05-01T06:05:02;99792.72;;;13.38;72.73
51759;BME280;66684;47.568;18.734;2023-05-01T06:07:27;99794.41;;;13.36;71.34
51759;BME280;66684;47.568;18.734;2023-05-01T06:09:54;99791.56;;;13.29;71.75
51759;BME280;66684;47.568;18.734;2023-05-01T06:12:19;99797.50;;;13.26;72.13
51759;BME280;66684;47.568;18.734;2023-05-01T06:14:46;99800.06;;;13.25;69.33
51759;BME280;66684;47.568;18.734;2023-05-01T06:17:12;99792.47;;;13.31;66.39
51759;BME280;66684;47.568;18.734;2023-05-01T06:19:38;99797.81;;;13.35;66.11
51759;BME280;66684;47.568;18.734;2023-05-01T06:22:04;99791.53;;;13.56;63.64
51759;BME280;66684;47.568;18.734;2023-05-01T06:24:32;99793.47;;;13.61;64.44
51759;BME280;66684;47.568;18.734;2023-05-01T06:26:58;99787.81;;;13.74;64.17
51759;BME280;66684;47.568;18.734;2023-05-01T06:29:24;99792.50;;;13.86;63.81
51759;BME280;66684;47.568;18.734;2023-05-01T06:31:50;99793.06;;;14.04;63.39
51759;BME280;66684;47.568;18.734;2023-05-01T06:34:16;99798.13;;;14.01;63.04
51759;BME280;66684;47.568;18.734;2023-05-01T06:36:41;99794.91;;;14.09;63.17
51759;BME280;66684;47.568;18.734;2023-05-01T06:39:07;99803.25;;;13.98;63.35
51759;BME280;66684;47.568;18.734;2023-05-01T06:41:33;99799.50;;;13.89;62.17
51759;BME280;66684;47.568;18.734;2023-05-01T06:44:00;99802.59;;;14.06;62.68
51759;BME280;66684;47.568;18.734;2023-05-01T06:46:26;99804.00;;;14.23;60.75
51759;BME280;66684;47.568;18.734;2023-05-01T06:48:52;99802.41;;;14.28;58.11
51759;BME280;66684;47.568;18.734;2023-05-01T06:51:18;99800.38;;;14.18;57.03
51759;BME280;66684;47.568;18.734;2023-05-01T06:53:44;99802.34;;;14.26;56.68
51759;BME280;66684;47.568;18.734;2023-05-01T06:56:10;99803.19;;;14.25;56.68
51759;BME280;66684;47.568;18.734;2023-05-01T06:58:36;99800.81;;;14.33;56.99
51759;BME280;66684;47.568;18.734;2023-05-01T07:01:02;99802.84;;;14.43;57.31
51759;BME280;66684;47.568;18.734;2023-05-01T07:03:28;99801.16;;;14.45;57.96
51759;BME280;66684;47.568;18.734;2023-05-01T07:05:54;99801.41;;;14.53;56.69
51759;BME280;66684;47.568;18.734;2023-05-01T07:08:20;99809.28;;;14.56;58.46
51759;BME280;66684;47.568;18.734;2023-05-01T07:10:46;99807.00;;;14.67;57.51
51759;BME280;66684;47.568;18.734;2023-05-01T07:13:15;99802.19;;;14.82;58.43
51759;BME280;66684;47.568;18.734;2023-05-01T07:15:41;99808.75;;;14.68;55.35
51759;BME280;66684;47.568;18.734;2023-05-01T07:18:08;99816.19;;;14.54;55.41
51759;BME280;66684;47.568;18.734;2023-05-01T07:20:34;99804.13;;;14.57;54.97
51759;BME280;66684;47.568;18.734;2023-05-01T07:23:00;99806.97;;;14.37;55.25
51759;BME280;66684;47.568;18.734;2023-05-01T07:25:25;99809.72;;;14.71;53.93
51759;BME280;66684;47.568;18.734;2023-05-01T07:27:51;99802.28;;;14.85;52.52
51759;BME280;66684;47.568;18.734;2023-05-01T07:30:18;99801.06;;;15.05;52.51
51759;BME280;66684;47.568;18.734;2023-05-01T07:32:45;99806.44;;;15.11;51.12
51759;BME280;66684;47.568;18.734;2023-05-01T07:35:11;99803.50;;;14.98;50.44
51759;BME280;66684;47.568;18.734;2023-05-01T07:37:37;99799.47;;;15.10;51.41
51759;BME280;66684;47.568;18.734;2023-05-01T07:40:03;99795.97;;;15.08;48.32
51759;BME280;66684;47.568;18.734;2023-05-01T07:42:29;99799.62;;;15.17;48.86
51759;BME280;66684;47.568;18.734;2023-05-01T07:44:55;99793.75;;;15.24;47.14
51759;BME280;66684;47.568;18.734;2023-05-01T07:47:21;99802.28;;;15.18;48.49
51759;BME280;66684;47.568;18.734;2023-05-01T07:49:47;99798.06;;;15.23;51.76
51759;BME280;66684;47.568;18.734;2023-05-01T07:52:13;99799.78;;;15.23;47.76
51759;BME280;66684;47.568;18.734;2023-05-01T07:54:40;99798.62;;;15.11;50.03
51759;BME280;66684;47.568;18.734;2023-05-01T07:57:06;99802.16;;;15.48;49.72
51759;BME280;66684;47.568;18.734;2023-05-01T07:59:32;99802.63;;;15.67;47.81
51759;BME280;66684;47.568;18.734;2023-05-01T08:01:58;99798.88;;;15.93;47.38
51759;BME280;66684;47.568;18.734;2023-05-01T08:04:24;99799.56;;;15.84;48.10
51759;BME280;66684;47.568;18.734;2023-05-01T08:06:50;99794.91;;;16.10;47.27
51759;BME280;66684;47.568;18.734;2023-05-01T08:09:16;99801.84;;;16.10;47.89
51759;BME280;66684;47.568;18.734;2023-05-01T08:11:42;99805.47;;;16.16;48.75
51759;BME280;66684;47.568;18.734;2023-05-01T08:14:08;99801.88;;;16.11;47.06
51759;BME280;66684;47.568;18.734;2023-05-01T08:16:34;99805.50;;;16.19;46.71
51759;BME280;66684;47.568;18.734;2023-05-01T08:19:00;99796.84;;;16.21;46.94
51759;BME280;66684;47.568;18.734;2023-05-01T08:21:26;99804.16;;;16.38;47.77
51759;BME280;66684;47.568;18.734;2023-05-01T08:23:54;99806.38;;;16.62;49.31
51759;BME280;66684;47.568;18.734;2023-05-01T08:26:20;99800.72;;;16.83;46.97
51759;BME280;66684;47.568;18.734;2023-05-01T08:28:46;99802.69;;;16.51;47.89
51759;BME280;66684;47.568;18.734;2023-05-01T08:31:12;99805.84;;;16.35;49.51
51759;BME280;66684;47.568;18.734;2023-05-01T08:33:38;99802.41;;;16.36;51.67
51759;BME280;66684;47.568;18.734;2023-05-01T08:36:08;99806.59;;;16.71;47.99
51759;BME280;66684;47.568;18.734;2023-05-01T08:38:35;99801.47;;;16.78;47.08
51759;BME280;66684;47.568;18.734;2023-05-01T08:41:01;99806.66;;;16.75;48.59
51759;BME280;66684;47.568;18.734;2023-05-01T08:43:31;99792.22;;;16.93;46.45
51759;BME280;66684;47.568;18.734;2023-05-01T08:45:58;99798.22;;;16.88;47.56
51759;BME280;66684;47.568;18.734;2023-05-01T08:48:28;99806.16;;;16.95;47.26
51759;BME280;66684;47.568;18.734;2023-05-01T08:50:58;99794.81;;;16.92;46.73
51759;BME280;66684;47.568;18.734;2023-05-01T08:53:25;99798.53;;;17.06;47.35
51759;BME280;66684;47.568;18.734;2023-05-01T08:55:54;99794.09;;;17.01;47.31
51759;BME280;66684;47.568;18.734;2023-05-01T08:58:23;99795.34;;;17.22;47.05
51759;BME280;66684;47.568;18.734;2023-05-01T09:00:49;99798.75;;;17.18;46.79
51759;BME280;66684;47.568;18.734;2023-05-01T09:03:16;99794.50;;;17.25;47.48
51759;BME280;66684;47.568;18.734;2023-05-01T09:05:42;99785.25;;;17.44;45.53
51759;BME280;66684;47.568;18.734;2023-05-01T09:08:08;99794.63;;;17.31;46.13
51759;BME280;66684;47.568;18.734;2023-05-01T09:10:39;99802.53;;;17.36;48.57
51759;BME280;66684;47.568;18.734;2023-05-01T09:13:06;99797.09;;;17.23;47.06
51759;BME280;66684;47.568;18.734;2023-05-01T09:15:34;99805.19;;;17.40;49.01
51759;BME280;66684;47.568;18.734;2023-05-01T09:18:00;99788.81;;;17.49;48.39
51759;BME280;66684;47.568;18.734;2023-05-01T09:20:27;99785.78;;;17.77;48.81
51759;BME280;66684;47.568;18.734;2023-05-01T09:22:54;99784.59;;;17.59;45.75
51759;BME280;66684;47.568;18.734;2023-05-01T09:25:22;99785.63;;;17.68;47.82
51759;BME280;66684;47.568;18.734;2023-05-01T09:27:48;99778.53;;;17.61;46.37
51759;BME280;66684;47.568;18.734;2023-05-01T09:30:33;99780.53;;;17.77;45.51
51759;BME280;66684;47.568;18.734;2023-05-01T09:33:07;99784.75;;;17.69;46.07
51759;BME280;66684;47.568;18.734;2023-05-01T09:35:47;99775.22;;;17.71;46.98
51759;BME280;66684;47.568;18.734;2023-05-01T09:38:18;99774.75;;;17.98;44.71
51759;BME280;66684;47.568;18.734;2023-05-01T09:40:44;99774.06;;;18.13;45.15
51759;BME280;66684;47.568;18.734;2023-05-01T09:43:11;99768.91;;;18.18;44.23
51759;BME280;66684;47.568;18.734;2023-05-01T09:45:37;99768.25;;;18.36;44.56
51759;BME280;66684;47.568;18.734;2023-05-01T09:48:08;99763.03;;;18.37;43.67
51759;BME280;66684;47.568;18.734;2023-05-01T09:50:35;99757.84;;;18.42;46.37
51759;BME280;66684;47.568;18.734;2023-05-01T09:53:03;99761.31;;;18.39;44.32
51759;BME280;66684;47.568;18.734;2023-05-01T09:55:31;99755.56;;;18.68;44.64
51759;BME280;66684;47.568;18.734;2023-05-01T09:57:57;99758.25;;;18.77;42.59
51759;BME280;66684;47.568;18.734;2023-05-01T10:00:26;99752.84;;;18.65;42.78
51759;BME280;66684;47.568;18.734;2023-05-01T10:02:52;99746.88;;;18.73;42.61
51759;BME280;66684;47.568;18.734;2023-05-01T10:05:18;99744.34;;;18.81;42.83
51759;BME280;66684;47.568;18.734;2023-05-01T10:10:21;99740.84;;;18.83;42.40
51759;BME280;66684;47.568;18.734;2023-05-01T10:12:48;99738.62;;;19.29;42.64
51759;BME280;66684;47.568;18.734;2023-05-01T10:15:15;99736.13;;;19.45;42.06
51759;BME280;66684;47.568;18.734;2023-05-01T10:17:42;99732.31;;;19.04;41.00
51759;BME280;66684;47.568;18.734;2023-05-01T10:20:12;99735.16;;;19.30;43.36
51759;BME280;66684;47.568;18.734;2023-05-01T10:22:39;99736.91;;;19.31;42.10
51759;BME280;66684;47.568;18.734;2023-05-01T10:25:09;99726.37;;;19.28;40.85
51759;BME280;66684;47.568;18.734;2023-05-01T10:27:40;99723.72;;;19.22;41.49
51759;BME280;66684;47.568;18.734;2023-05-01T10:30:07;99721.28;;;19.44;40.20
51759;BME280;66684;47.568;18.734;2023-05-01T10:32:35;99722.16;;;19.43;41.80
51759;BME280;66684;47.568;18.734;2023-05-01T10:35:12;99714.53;;;19.82;40.35
51759;BME280;66684;47.568;18.734;2023-05-01T10:37:46;99714.50;;;19.75;41.11
51759;BME280;66684;47.568;18.734;2023-05-01T10:43:33;99721.38;;;19.59;42.16
51759;BME280;66684;47.568;18.734;2023-05-01T10:51:13;99713.06;;;20.61;38.77
51759;BME280;66684;47.568;18.734;2023-05-01T10:53:41;99705.19;;;20.52;40.46
51759;BME280;66684;47.568;18.734;2023-05-01T10:58:55;99718.22;;;20.36;41.71
51759;BME280;66684;47.568;18.734;2023-05-01T11:04:06;99705.81;;;19.89;41.81
51759;BME280;66684;47.568;18.734;2023-05-01T11:06:34;99689.34;;;20.19;41.01
51759;BME280;66684;47.568;18.734;2023-05-01T11:09:00;99697.31;;;20.45;39.59
51759;BME280;66684;47.568;18.734;2023-05-01T11:19:08;99699.00;;;20.40;39.86
51759;BME280;66684;47.568;18.734;2023-05-01T11:21:36;99695.50;;;20.38;41.87
51759;BME280;66684;47.568;18.734;2023-05-01T11:24:04;99681.59;;;20.82;41.96
51759;BME280;66684;47.568;18.734;2023-05-01T11:26:31;99679.75;;;20.38;41.18
51759;BME280;66684;47.568;18.734;2023-05-01T11:28:59;99685.97;;;20.86;41.56
51759;BME280;66684;47.568;18.734;2023-05-01T11:31:26;99673.69;;;20.99;40.00
51759;BME280;66684;47.568;18.734;2023-05-01T11:33:58;99678.91;;;21.48;39.24
51759;BME280;66684;47.568;18.734;2023-05-01T11:36:25;99664.84;;;21.70;40.00
51759;BME280;66684;47.568;18.734;2023-05-01T11:38:53;99660.31;;;22.07;37.21
51759;BME280;66684;47.568;18.734;2023-05-01T11:41:22;99663.72;;;22.28;36.57
51759;BME280;66684;47.568;18.734;2023-05-01T11:43:57;99662.25;;;21.63;38.00
51759;BME280;66684;47.568;18.734;2023-05-01T11:46:28;99666.66;;;21.42;39.67
51759;BME280;66684;47.568;18.734;2023-05-01T11:48:56;99664.91;;;21.24;39.62
51759;BME280;66684;47.568;18.734;2023-05-01T11:51:23;99664.94;;;21.03;38.05
51759;BME280;66684;47.568;18.734;2023-05-01T11:53:59;99658.81;;;20.90;37.84
51759;BME280;66684;47.568;18.734;2023-05-01T11:56:25;99664.09;;;20.99;38.96
51759;BME280;66684;47.568;18.734;2023-05-01T11:58:56;99653.50;;;21.48;36.90
51759;BME280;66684;47.568;18.734;2023-05-01T12:01:35;99649.09;;;21.58;36.17
51759;BME280;66684;47.568;18.734;2023-05-01T12:04:02;99649.16;;;21.34;37.48
51759;BME280;66684;47.568;18.734;2023-05-01T12:09:25;99652.69;;;21.31;37.16
51759;BME280;66684;47.568;18.734;2023-05-01T12:11:52;99653.28;;;22.03;36.10
51759;BME280;66684;47.568;18.734;2023-05-01T12:14:19;99642.87;;;21.79;36.07
51759;BME280;66684;47.568;18.734;2023-05-01T12:16:46;99649.00;;;21.89;35.93
51759;BME280;66684;47.568;18.734;2023-05-01T12:19:15;99639.25;;;22.14;36.59
51759;BME280;66684;47.568;18.734;2023-05-01T12:21:42;99636.41;;;22.46;34.70
51759;BME280;66684;47.568;18.734;2023-05-01T12:24:12;99634.38;;;22.78;34.67
51759;BME280;66684;47.568;18.734;2023-05-01T12:26:45;99635.25;;;22.79;34.25
51759;BME280;66684;47.568;18.734;2023-05-01T12:29:11;99621.19;;;22.80;33.38
51759;BME280;66684;47.568;18.734;2023-05-01T12:31:47;99624.62;;;22.96;34.38
51759;BME280;66684;47.568;18.734;2023-05-01T12:34:14;99609.63;;;23.01;33.72
51759;BME280;66684;47.568;18.734;2023-05-01T12:36:40;99608.53;;;23.22;33.21
51759;BME280;66684;47.568;18.734;2023-05-01T12:39:07;99609.75;;;22.87;34.56
51759;BME280;66684;47.568;18.734;2023-05-01T12:41:47;99604.13;;;23.24;33.66
51759;BME280;66684;47.568;18.734;2023-05-01T12:47:02;99611.53;;;22.88;36.14
51759;BME280;66684;47.568;18.734;2023-05-01T12:49:29;99603.97;;;22.38;35.77
51759;BME280;66684;47.568;18.734;2023-05-01T12:51:58;99602.06;;;22.56;34.94
51759;BME280;66684;47.568;18.734;2023-05-01T12:54:30;99596.66;;;22.75;35.38
51759;BME280;66684;47.568;18.734;2023-05-01T12:59:35;99592.41;;;22.58;34.82
51759;BME280;66684;47.568;18.734;2023-05-01T13:02:03;99591.72;;;22.35;35.29
51759;BME280;66684;47.568;18.734;2023-05-01T13:04:29;99582.97;;;22.33;34.27
51759;BME280;66684;47.568;18.734;2023-05-01T13:06:56;99576.00;;;22.26;34.02
51759;BME280;66684;47.568;18.734;2023-05-01T13:09:26;99581.25;;;22.26;36.69
51759;BME280;66684;47.568;18.734;2023-05-01T13:11:59;99584.75;;;22.28;35.55
51759;BME280;66684;47.568;18.734;2023-05-01T13:14:28;99575.81;;;22.47;33.64
51759;BME280;66684;47.568;18.734;2023-05-01T13:16:55;99570.78;;;22.17;34.75
51759;BME280;66684;47.568;18.734;2023-05-01T13:19:27;99570.56;;;22.47;35.83
51759;BME280;66684;47.568;18.734;2023-05-01T13:21:55;99568.00;;;22.40;35.64
51759;BME280;66684;47.568;18.734;2023-05-01T13:24:21;99557.66;;;22.15;35.97
51759;BME280;66684;47.568;18.734;2023-05-01T13:26:55;99572.56;;;22.08;36.53
51759;BME280;66684;47.568;18.734;2023-05-01T13:29:23;99565.59;;;22.01;36.93
51759;BME280;66684;47.568;18.734;2023-05-01T13:31:51;99556.94;;;21.83;35.17
51759;BME280;66684;47.568;18.734;2023-05-01T13:34:23;99556.00;;;21.91;36.47
51759;BME280;66684;47.568;18.734;2023-05-01T13:36:49;99552.53;;;21.86;36.93
51759;BME280;66684;47.568;18.734;2023-05-01T13:39:18;99551.59;;;21.93;34.56
51759;BME280;66684;47.568;18.734;2023-05-01T13:41:45;99544.56;;;22.01;34.97
51759;BME280;66684;47.568;18.734;2023-05-01T13:44:11;99546.38;;;21.90;35.06
51759;BME280;66684;47.568;18.734;2023-05-01T13:46:40;99546.59;;;21.50;35.64